Time;durP1;ratioP1;P1;durP2;ratioP2;P2;SDS_P1;SDS_P2;PMS_P1;PMS_P2;Temp;Humidity;BMP_temperature;BMP_pressure;BME280_temperature;BME280_humidity;BME280_pressure;Samples;Min_cycle;Max_cycle;Signal;HPM_P1;HPM_P2
2023/01/02 00:00:53;;;;;;;5.53;2.35;;;;;;;16.61;57.70;101042.66;6156660;23;20025;-43
2023/01/02 00:03:19;;;;;;;5.38;2.60;;;;;;;16.60;57.42;101035.59;6156084;23;20294;-43
2023/01/02 00:05:46;;;;;;;8.48;3.05;;;;;;;16.62;57.71;101032.81;6155319;23;20033;-43
2023/01/02 00:08:13;;;;;;;7.35;2.67;;;;;;;16.61;58.05;101036.47;6154977;23;20031;-44
2023/01/02 00:10:39;;;;;;;5.50;2.92;;;;;;;16.61;57.51;101031.97;6155722;23;20061;-42
2023/01/02 00:13:06;;;;;;;5.55;2.60;;;;;;;16.62;58.18;101038.16;6155726;23;20061;-43
2023/01/02 00:15:32;;;;;;;4.90;2.80;;;;;;;16.61;57.77;101033.78;6156280;23;20313;-43
2023/01/02 00:17:59;;;;;;;4.70;2.33;;;;;;;16.60;58.18;101029.41;6155491;23;20029;-43
2023/01/02 00:20:25;;;;;;;6.53;2.78;;;;;;;16.60;57.77;101024.91;6156252;23;20028;-42
2023/01/02 00:22:52;;;;;;;5.85;2.30;;;;;;;16.59;57.49;101017.88;6155805;23;20048;-44
2023/01/02 00:25:19;;;;;;;4.88;2.50;;;;;;;16.59;57.90;101015.19;6155106;23;20092;-45
2023/01/02 00:27:45;;;;;;;4.40;2.25;;;;;;;16.59;57.62;101017.03;6154165;23;20076;-43
2023/01/02 00:30:12;;;;;;;5.68;2.80;;;;;;;16.59;58.24;101011.66;6154574;23;20031;-42
2023/01/02 00:32:39;;;;;;;3.97;2.40;;;;;;;16.58;57.66;101004.63;6155597;23;20060;-43
2023/01/02 00:35:06;;;;;;;3.33;2.20;;;;;;;16.58;58.31;100996.59;6154653;23;20412;-43
2023/01/02 00:37:32;;;;;;;4.30;2.50;;;;;;;16.56;58.09;100999.41;6154240;23;20021;-43
2023/01/02 00:39:59;;;;;;;6.63;2.78;;;;;;;16.57;58.14;101000.28;6152508;23;20021;-43
2023/01/02 00:42:25;;;;;;;4.80;2.33;;;;;;;16.57;57.87;101001.13;6155003;23;20028;-43
2023/01/02 00:44:52;;;;;;;4.15;2.60;;;;;;;16.56;57.63;101004.75;6155815;23;20036;-43
2023/01/02 00:47:18;;;;;;;5.68;2.33;;;;;;;16.57;58.00;100998.44;6155704;23;20412;-43
2023/01/02 00:49:45;;;;;;;4.90;2.33;;;;;;;16.57;58.12;100987.75;6155426;23;20028;-43
2023/01/02 00:52:11;;;;;;;4.80;2.58;;;;;;;16.58;58.14;100994.78;6156752;23;20282;-43
2023/01/02 00:54:38;;;;;;;4.07;2.42;;;;;;;16.56;57.61;100993.22;6154772;23;20097;-44
2023/01/02 00:57:04;;;;;;;5.13;2.50;;;;;;;16.56;58.45;100985.19;6155536;23;20386;-43
2023/01/02 00:59:31;;;;;;;4.93;2.10;;;;;;;16.57;58.25;100994.94;6155877;23;20022;-43
2023/01/02 01:01:58;;;;;;;5.20;2.40;;;;;;;16.56;57.92;100983.34;6155306;23;20052;-43
2023/01/02 01:04:24;;;;;;;3.88;2.38;;;;;;;16.57;58.33;100976.19;6153542;23;20034;-43
2023/01/02 01:06:51;;;;;;;5.75;2.38;;;;;;;16.57;57.89;100985.06;6154513;23;20025;-43
2023/01/02 01:09:17;;;;;;;4.43;2.38;;;;;;;16.57;58.42;100979.72;6153541;23;20028;-42
2023/01/02 01:11:44;;;;;;;3.88;2.20;;;;;;;16.58;57.76;100981.41;6155784;23;20297;-43
2023/01/02 01:14:10;;;;;;;6.13;2.60;;;;;;;16.60;57.78;100983.91;6156809;23;20032;-44
2023/01/02 01:16:37;;;;;;;4.30;2.22;;;;;;;16.60;57.49;100979.41;6156293;23;20057;-43
2023/01/02 01:19:03;;;;;;;4.22;2.10;;;;;;;16.62;58.28;100980.13;6156993;23;20041;-43
2023/01/02 01:21:30;;;;;;;4.30;2.30;;;;;;;16.63;58.33;100976.44;6156749;23;20045;-45
2023/01/02 01:23:56;;;;;;;5.13;2.25;;;;;;;16.64;57.65;100966.59;6155124;23;20029;-43
2023/01/02 01:26:23;;;;;;;3.42;2.15;;;;;;;16.64;57.52;100963.91;6156760;23;20028;-43
2023/01/02 01:28:54;;;;;;;4.05;2.13;;;;;;;16.65;57.61;100960.28;6156465;23;20021;-44
2023/01/02 01:31:22;;;;;;;7.32;2.60;;;;;;;16.65;58.37;100953.09;6156626;23;20017;-44
2023/01/02 01:33:49;;;;;;;5.50;2.30;;;;;;;16.66;58.33;100951.25;6156556;23;20621;-44
2023/01/02 01:36:18;;;;;;;4.35;2.35;;;;;;;16.63;58.46;100944.34;6155495;23;20029;-45
2023/01/02 01:38:46;;;;;;;3.38;2.08;;;;;;;16.65;58.44;100945.06;6155226;23;20439;-43
2023/01/02 01:41:15;;;;;;;5.25;2.10;;;;;;;16.64;58.25;100942.50;6155875;23;20129;-44
2023/01/02 01:43:51;;;;;;;4.80;2.17;;;;;;;16.63;57.70;100949.69;6156239;23;20696;-44
2023/01/02 01:46:29;;;;;;;5.03;2.05;;;;;;;16.63;58.16;100946.19;6156047;23;20022;-44
2023/01/02 01:49:21;;;;;;;4.07;2.22;;;;;;;16.63;58.43;100944.34;6155151;23;20029;-44
2023/01/02 01:51:54;;;;;;;4.70;2.03;;;;;;;16.63;58.12;100955.03;6154462;23;20018;-43
2023/01/02 01:54:32;;;;;;;4.07;2.08;;;;;;;16.62;58.20;100958.72;6154828;23;20025;-43
2023/01/02 01:57:03;;;;;;;5.70;2.55;;;;;;;16.61;58.18;100962.38;6155703;23;20390;-44
2023/01/02 01:59:29;;;;;;;4.88;2.63;;;;;;;16.62;58.37;100960.56;6155451;23;20025;-43
2023/01/02 02:01:56;;;;;;;6.10;2.60;;;;;;;16.62;58.16;100966.75;6129609;23;20044;-43
2023/01/02 02:04:25;;;;;;;4.55;2.50;;;;;;;16.61;58.05;100975.78;6155634;23;20021;-43
2023/01/02 02:06:53;;;;;;;4.40;2.28;;;;;;;16.61;58.40;100973.09;6153431;23;20061;-43
2023/01/02 02:09:27;;;;;;;3.22;1.88;;;;;;;16.61;57.91;100978.44;6155176;23;20057;-43
2023/01/02 02:11:53;;;;;;;;;;;;;;;16.61;57.80;100973.09;6155513;23;20032;-43
2023/01/02 02:14:20;;;;;;;4.15;2.70;;;;;;;16.64;57.84;100974.63;6155864;23;19917;-44
2023/01/02 02:17:26;;;;;;;6.00;2.50;;;;;;;16.61;58.23;100973.09;6156790;23;20133;-43
2023/01/02 02:20:17;;;;;;;5.13;2.60;;;;;;;16.63;58.05;100975.63;6155776;23;20040;-43
2023/01/02 02:23:06;;;;;;;3.67;2.17;;;;;;;16.61;58.09;100972.25;6155754;23;20025;-43
2023/01/02 02:25:51;;;;;;;4.25;2.28;;;;;;;16.61;58.86;100970.41;6153128;23;20104;-43
2023/01/02 02:28:21;;;;;;;5.13;2.92;;;;;;;16.62;58.09;100968.59;6156576;23;20025;-43
2023/01/02 02:31:06;;;;;;;4.18;2.13;;;;;;;16.61;58.63;100961.53;6155405;23;20060;-43
2023/01/02 02:33:46;;;;;;;3.78;2.70;;;;;;;16.63;57.55;100973.78;6156104;23;20021;-43
2023/01/02 02:36:23;;;;;;;4.13;2.60;;;;;;;16.63;58.21;100965.75;6155883;23;20025;-43
2023/01/02 02:38:59;;;;;;;6.03;2.70;;;;;;;16.65;57.80;100966.47;6154336;23;20373;-43
2023/01/02 02:41:51;;;;;;;4.18;2.40;;;;;;;16.65;58.01;100953.09;6154768;23;20049;-43
2023/01/02 02:44:40;;;;;;;4.35;2.10;;;;;;;16.67;58.62;100956.44;6155405;23;20044;-43
2023/01/02 02:47:19;;;;;;;5.80;2.50;;;;;;;16.68;57.88;100963.53;6156569;23;20109;-43
2023/01/02 02:49:45;;;;;;;3.88;2.22;;;;;;;16.67;58.19;100959.13;6154345;23;20107;-43
2023/01/02 02:52:37;;;;;;;5.32;2.38;;;;;;;16.68;58.04;100959.97;6155286;23;20022;-43
2023/01/02 02:55:14;;;;;;;3.97;2.63;;;;;;;16.66;58.01;100952.09;6154769;23;20410;-43
2023/01/02 02:57:42;;;;;;;4.30;2.38;;;;;;;16.67;58.56;100951.09;6155875;23;20044;-43
2023/01/02 03:00:13;;;;;;;4.70;2.40;;;;;;;16.67;58.47;100945.75;6156437;23;20021;-43
2023/01/02 03:02:39;;;;;;;4.63;1.90;;;;;;;16.67;58.32;100950.25;6155104;23;20068;-43
2023/01/02 03:05:10;;;;;;;5.38;1.98;;;;;;;16.67;57.64;100948.41;6156543;23;20021;-43
2023/01/02 03:08:12;;;;;;;5.82;2.88;;;;;;;16.65;58.23;100949.56;6156146;23;20319;-43
2023/01/02 03:10:42;;;;;;;5.57;2.78;;;;;;;16.66;58.20;100946.75;6036269;23;20076;-43
2023/01/02 03:13:22;;;;;;;4.90;2.05;;;;;;;16.66;58.42;100938.72;6134681;23;20028;-43
2023/01/02 03:16:16;;;;;;;4.03;2.58;;;;;;;16.63;58.58;100928.28;6156181;23;20028;-43
2023/01/02 03:18:58;;;;;;;4.10;2.88;;;;;;;16.65;58.02;100930.84;6156359;23;20100;-43
2023/01/02 03:21:46;;;;;;;6.18;2.30;;;;;;;16.63;58.42;100925.59;6155331;23;20017;-43
2023/01/02 03:24:17;;;;;;;4.70;2.28;;;;;;;16.63;58.62;100927.44;6153762;23;20112;-43
2023/01/02 03:26:50;;;;;;;4.22;2.47;;;;;;;16.63;58.36;100930.97;6153847;23;20036;-43
2023/01/02 03:29:24;;;;;;;4.90;2.70;;;;;;;16.63;58.45;100924.78;6154091;23;20026;-43
2023/01/02 03:31:54;;;;;;;4.63;2.17;;;;;;;16.63;58.31;100932.78;6154189;23;20028;-44
2023/01/02 03:34:26;;;;;;;5.05;2.33;;;;;;;16.63;58.13;100930.13;6154580;23;20409;-44
2023/01/02 03:36:57;;;;;;;4.50;2.08;;;;;;;16.62;58.62;100934.63;6154612;23;20531;-44
2023/01/02 03:39:29;;;;;;;8.35;2.80;;;;;;;16.61;58.79;100937.47;6152914;23;20285;-44
2023/01/02 03:42:07;;;;;;;7.35;2.58;;;;;;;16.61;58.53;100934.78;6154793;23;20039;-44
2023/01/02 03:44:43;;;;;;;6.80;2.30;;;;;;;16.61;58.91;100932.94;6154418;23;20032;-44
2023/01/02 03:47:31;;;;;;;5.05;2.60;;;;;;;16.61;59.16;100937.47;6152851;23;20057;-44
2023/01/02 03:50:03;;;;;;;5.78;2.55;;;;;;;16.62;58.50;100936.47;6153638;23;20286;-44
2023/01/02 03:52:30;;;;;;;5.72;2.53;;;;;;;16.62;58.05;100941.81;6154970;23;20323;-44
2023/01/02 03:54:58;;;;;;;5.85;2.20;;;;;;;16.62;58.96;100945.34;6151999;23;20026;-44
2023/01/02 03:57:55;;;;;;;3.53;2.38;;;;;;;16.61;58.52;100940.97;6154386;23;20068;-44
2023/01/02 04:00:31;;;;;;;5.57;2.15;;;;;;;16.63;58.73;100944.34;6154810;23;20018;-44
2023/01/02 04:03:23;;;;;;;3.42;2.45;;;;;;;16.63;58.56;100957.72;6154043;23;20036;-43
2023/01/02 04:05:58;;;;;;;4.68;2.13;;;;;;;16.66;58.72;100946.75;6154243;23;20112;-44
2023/01/02 04:08:30;;;;;;;4.20;2.22;;;;;;;16.67;58.94;100951.09;6153882;23;20026;-44
2023/01/02 04:11:00;;;;;;;4.82;1.92;;;;;;;16.67;58.79;100945.75;6127837;23;20255;-44
2023/01/02 04:13:44;;;;;;;6.80;2.53;;;;;;;16.68;58.75;100943.91;6155559;23;20028;-44
2023/01/02 04:16:17;;;;;;;6.35;2.50;;;;;;;16.69;58.58;100945.63;6153825;23;20021;-44
2023/01/02 04:18:50;;;;;;;4.97;2.42;;;;;;;16.69;58.36;100948.31;6156017;23;20021;-44
2023/01/02 04:21:22;;;;;;;6.93;2.83;;;;;;;16.68;58.58;100952.81;6155265;23;20032;-44
2023/01/02 04:23:59;;;;;;;9.35;2.78;;;;;;;16.68;58.51;100957.28;6154479;23;20025;-44
2023/01/02 04:26:34;;;;;;;7.35;2.92;;;;;;;16.68;58.36;100950.13;6155104;23;20025;-44
2023/01/02 04:29:01;;;;;;;4.07;2.10;;;;;;;16.67;58.58;100961.81;6155710;23;20022;-43
2023/01/02 04:31:45;;;;;;;3.47;2.15;;;;;;;16.68;58.84;100959.97;6155853;23;20017;-43
2023/01/02 04:34:14;;;;;;;3.22;1.92;;;;;;;16.68;59.22;100963.53;6153526;23;20104;-43
2023/01/02 04:36:40;;;;;;;5.97;2.28;;;;;;;16.69;59.10;100964.34;6154038;23;20033;-44
2023/01/02 04:39:08;;;;;;;4.45;2.05;;;;;;;16.67;58.70;100959.13;6153695;23;20401;-44
2023/01/02 04:41:36;;;;;;;3.25;2.03;;;;;;;16.67;58.65;100956.44;6153152;23;20097;-44
2023/01/02 04:44:03;;;;;;;4.45;2.05;;;;;;;16.67;59.04;100955.59;6154674;23;20393;-44
2023/01/02 04:46:30;;;;;;;5.53;2.65;;;;;;;16.67;58.65;100959.13;6156053;23;20021;-44
2023/01/02 04:48:57;;;;;;;5.45;1.95;;;;;;;16.65;58.68;100961.13;6155297;23;20025;-44
2023/01/02 04:51:23;;;;;;;4.03;2.03;;;;;;;16.66;58.79;100954.78;6156386;23;20025;-44
2023/01/02 04:53:51;;;;;;;7.05;2.00;;;;;;;16.66;58.85;100962.81;6156071;23;20105;-44
2023/01/02 04:56:18;;;;;;;4.35;2.08;;;;;;;16.67;59.30;100967.16;6156218;23;20026;-44
2023/01/02 04:58:45;;;;;;;5.05;2.13;;;;;;;16.66;59.00;100970.81;6157787;23;20033;-44
2023/01/02 05:01:15;;;;;;;7.05;2.10;;;;;;;16.66;58.57;100970.00;6158159;23;20309;-44
2023/01/02 05:03:44;;;;;;;6.50;2.47;;;;;;;16.65;59.31;100974.50;6157479;23;20092;-44
2023/01/02 05:06:11;;;;;;;4.88;2.10;;;;;;;16.64;58.66;100982.66;6155630;23;20036;-44
2023/01/02 05:08:38;;;;;;;4.18;2.03;;;;;;;16.65;58.70;100989.72;6155606;23;20055;-44
2023/01/02 05:11:15;;;;;;;6.68;1.85;;;;;;;16.65;58.97;100982.53;6157871;23;20022;-44
2023/01/02 05:13:42;;;;;;;5.15;2.17;;;;;;;16.66;58.94;100994.91;6157999;23;20059;-44
2023/01/02 05:16:09;;;;;;;9.88;2.58;;;;;;;16.65;59.01;101001.25;6157142;23;20025;-44
2023/01/02 05:18:35;;;;;;;4.07;1.90;;;;;;;16.65;59.42;101041.41;6156979;23;20060;-44
2023/01/02 05:23:47;;;;;;;3.67;2.00;;;;;;;16.67;58.77;101055.47;6157813;23;20056;-44
2023/01/02 05:23:59;;;;;;;4.80;2.28;;;;;;;16.69;58.96;101071.41;6156387;23;20104;-44
2023/01/02 05:26:26;;;;;;;3.15;1.98;;;;;;;16.68;59.83;101075.91;6156680;23;20021;-44
2023/01/02 05:28:53;;;;;;;2.78;1.90;;;;;;;16.69;59.40;101085.63;6157636;23;20109;-44
2023/01/02 05:31:20;;;;;;;4.57;2.22;;;;;;;16.71;59.21;101096.19;6157805;23;20021;-44
2023/01/02 05:33:54;;;;;;;2.92;1.95;;;;;;;16.71;59.53;101105.06;6157332;23;20263;-44
2023/01/02 05:36:22;;;;;;;3.25;2.47;;;;;;;16.72;59.24;101111.25;6157849;23;20029;-44
2023/01/02 05:38:49;;;;;;;4.95;2.03;;;;;;;16.72;59.80;101106.78;6156528;23;20026;-44
2023/01/02 05:41:16;;;;;;;4.13;2.13;;;;;;;16.73;59.96;101113.00;6157016;23;20025;-44
2023/01/02 05:43:42;;;;;;;4.18;1.92;;;;;;;16.72;59.81;101109.44;6157485;23;20025;-44
2023/01/02 05:46:11;;;;;;;2.70;1.63;;;;;;;16.74;59.52;101112.00;6157289;23;20084;-44
2023/01/02 05:48:38;;;;;;;3.97;2.10;;;;;;;16.73;59.50;101121.88;6157011;23;20033;-44
2023/01/02 05:51:06;;;;;;;4.20;2.05;;;;;;;16.72;59.45;101122.84;6157606;23;20401;-44
2023/01/02 05:53:34;;;;;;;2.20;1.85;;;;;;;16.72;59.97;101136.22;6156745;23;20021;-44
2023/01/02 05:56:12;;;;;;;2.42;1.70;;;;;;;16.71;60.10;101139.84;6156752;23;20567;-44
2023/01/02 05:58:41;;;;;;;3.25;1.67;;;;;;;16.71;59.58;101142.53;6157021;23;20022;-44
2023/01/02 06:01:13;;;;;;;3.08;1.58;;;;;;;16.71;60.30;101163.94;6157317;23;20021;-44
2023/01/02 06:03:46;;;;;;;2.63;1.50;;;;;;;16.70;59.58;101170.28;6157662;23;20031;-44
2023/01/02 06:06:14;;;;;;;2.13;1.80;;;;;;;16.70;60.19;101185.50;6157879;23;20032;-44
2023/01/02 06:08:41;;;;;;;2.92;1.73;;;;;;;16.69;60.29;101187.34;6156201;23;20293;-44
2023/01/02 06:11:08;;;;;;;2.70;1.83;;;;;;;16.69;60.52;101198.03;6156940;23;20029;-44
2023/01/02 06:13:36;;;;;;;2.22;1.65;;;;;;;16.68;60.13;101199.03;6157828;23;20036;-44
2023/01/02 06:16:06;;;;;;;1.92;1.50;;;;;;;16.68;60.39;101215.09;6157914;23;20021;-44
2023/01/02 06:18:34;;;;;;;2.90;1.73;;;;;;;16.67;60.33;101208.03;6156840;23;20021;-44
2023/01/02 06:21:03;;;;;;;3.35;2.20;;;;;;;16.68;60.12;101216.91;6157231;23;20026;-44
2023/01/02 06:23:30;;;;;;;2.78;1.98;;;;;;;16.67;60.55;101217.88;6155462;23;20028;-44
2023/01/02 06:26:05;;;;;;;3.30;1.92;;;;;;;16.65;59.86;101226.06;6156510;23;20025;-44
2023/01/02 06:28:32;;;;;;;2.45;1.60;;;;;;;16.66;60.29;101229.59;6154832;23;20025;-44
2023/01/02 06:31:07;;;;;;;2.63;1.65;;;;;;;16.64;60.23;101236.88;6156783;23;20022;-44
2023/01/02 06:33:34;;;;;;;2.83;1.40;;;;;;;16.65;60.39;101250.16;6155678;23;20077;-44
2023/01/02 06:36:12;;;;;;;2.53;1.40;;;;;;;16.63;60.19;101260.13;6153139;23;20481;-43
2023/01/02 06:38:38;;;;;;;2.15;1.35;;;;;;;16.64;60.47;101266.31;6153306;23;20036;-42
2023/01/02 06:41:07;;;;;;;2.17;1.33;;;;;;;16.63;60.40;101273.50;6150976;23;20025;-43
2023/01/02 06:43:35;;;;;;;2.00;1.52;;;;;;;16.63;60.64;101276.19;6152703;23;20136;-43
2023/01/02 06:46:03;;;;;;;2.88;1.35;;;;;;;16.64;60.89;101282.38;6153855;23;20071;-43
2023/01/02 06:48:32;;;;;;;1.88;1.30;;;;;;;16.63;59.81;101288.72;6152816;23;20393;-44
2023/01/02 06:50:59;;;;;;;1.83;1.42;;;;;;;16.61;60.39;101283.53;6151343;23;20437;-43
2023/01/02 06:53:26;;;;;;;2.17;1.38;;;;;;;16.63;60.25;101296.75;6154189;23;20028;-43
2023/01/02 06:55:55;;;;;;;2.97;1.98;;;;;;;16.61;60.29;101307.59;6153271;23;20032;-44
2023/01/02 06:58:22;;;;;;;2.05;1.33;;;;;;;16.61;60.82;101310.28;6156574;23;20479;-45
2023/01/02 07:00:50;;;;;;;2.05;1.30;;;;;;;16.61;60.04;101312.97;6156544;23;20330;-43
2023/01/02 07:03:17;;;;;;;2.05;1.40;;;;;;;16.61;60.25;101314.78;6156058;23;20489;-44
2023/01/02 07:05:44;;;;;;;2.63;1.60;;;;;;;16.61;60.11;101320.13;6156336;23;20025;-44
2023/01/02 07:08:12;;;;;;;3.03;1.98;;;;;;;16.60;60.16;101327.28;6153888;23;20075;-44
2023/01/02 07:10:38;;;;;;;3.40;1.95;;;;;;;16.60;59.98;101329.13;6153710;23;20112;-44
2023/01/02 07:13:05;;;;;;;3.35;1.90;;;;;;;16.59;60.32;101322.09;6156141;23;20104;-44
2023/01/02 07:15:32;;;;;;;4.07;2.17;;;;;;;16.59;60.88;101333.63;6155797;23;20350;-44
2023/01/02 07:17:58;;;;;;;3.05;1.85;;;;;;;16.59;60.22;101339.00;6155686;23;20476;-44
2023/01/02 07:20:25;;;;;;;2.85;2.03;;;;;;;16.58;60.27;101334.63;6154330;23;20481;-43
2023/01/02 07:22:53;;;;;;;4.07;2.42;;;;;;;16.58;60.01;101366.75;6155054;23;20416;-44
2023/01/02 07:25:20;;;;;;;4.68;2.67;;;;;;;16.58;60.00;101369.41;6154124;23;20021;-44
2023/01/02 07:27:47;;;;;;;3.90;2.42;;;;;;;16.58;60.64;101369.41;6154390;23;20021;-44
2023/01/02 07:30:14;;;;;;;4.35;2.75;;;;;;;16.57;59.86;101389.13;6151018;23;20032;-44
2023/01/02 07:32:42;;;;;;;3.88;2.53;;;;;;;16.58;60.19;101379.28;6152245;23;20109;-44
2023/01/02 07:35:09;;;;;;;5.10;2.80;;;;;;;16.57;60.34;101389.13;6151579;23;20031;-44
2023/01/02 07:37:36;;;;;;;5.15;2.83;;;;;;;16.57;60.13;101386.47;6152967;23;20456;-42
2023/01/02 07:40:03;;;;;;;4.82;2.40;;;;;;;16.58;60.04;101406.03;6150210;23;20026;-43
2023/01/02 07:42:30;;;;;;;4.85;2.97;;;;;;;16.57;60.54;101409.69;6155052;23;20349;-43
2023/01/02 07:44:56;;;;;;;5.25;2.78;;;;;;;16.57;60.30;101415.06;6156511;23;20065;-43
2023/01/02 07:47:23;;;;;;;6.55;3.55;;;;;;;16.56;60.73;101430.22;6156521;23;20021;-44
2023/01/02 07:49:49;;;;;;;5.35;3.03;;;;;;;16.55;60.15;101436.56;6154607;23;20028;-44
2023/01/02 07:52:16;;;;;;;5.07;3.00;;;;;;;16.56;60.11;101440.09;6156208;23;20021;-43
2023/01/02 07:54:43;;;;;;;5.60;3.38;;;;;;;16.55;59.83;101441.91;6154216;23;20026;-44
2023/01/02 07:57:09;;;;;;;5.00;2.80;;;;;;;16.56;60.40;101461.50;6154781;23;20026;-44
2023/01/02 07:59:36;;;;;;;5.97;3.20;;;;;;;16.56;59.75;101464.16;6153684;23;20297;-44
2023/01/02 08:02:02;;;;;;;5.97;3.00;;;;;;;16.56;60.38;101464.16;6151959;23;20018;-44
2023/01/02 08:04:29;;;;;;;8.20;3.65;;;;;;;16.54;60.80;101478.53;6151319;23;20464;-44
2023/01/02 08:06:56;;;;;;;7.93;3.95;;;;;;;16.54;60.78;101475.88;6127139;23;20035;-44
2023/01/02 08:09:22;;;;;;;10.20;4.45;;;;;;;16.54;60.47;101475.88;6152871;23;20025;-44
2023/01/02 08:11:49;;;;;;;11.02;4.95;;;;;;;16.55;59.99;101490.09;6151291;23;20053;-44
2023/01/02 08:14:15;;;;;;;12.50;6.15;;;;;;;16.54;60.52;101493.75;6155526;23;20116;-43
2023/01/02 08:16:48;;;;;;;10.40;5.38;;;;;;;16.54;60.10;101507.13;6156577;23;20049;-43
2023/01/02 08:19:15;;;;;;;12.80;5.88;;;;;;;16.53;60.44;101511.63;6154841;23;20390;-43
2023/01/02 08:21:42;;;;;;;12.55;5.88;;;;;;;16.53;60.87;101508.97;6153580;23;20028;-43
2023/01/02 08:24:08;;;;;;;11.98;6.32;;;;;;;16.53;60.07;101517.00;6153021;23;20057;-43
2023/01/02 08:26:35;;;;;;;10.90;6.20;;;;;;;16.53;60.59;101513.47;6152421;23;20033;-43
2023/01/02 08:29:02;;;;;;;17.30;8.32;;;;;;;16.52;59.95;101520.66;6152923;23;20061;-43
2023/01/02 08:31:28;;;;;;;15.38;7.90;;;;;;;16.52;60.68;101522.44;6154287;23;20315;-43
2023/01/02 08:33:55;;;;;;;15.63;8.50;;;;;;;16.52;60.59;101517.09;6152844;23;20425;-43
2023/01/02 08:36:21;;;;;;;15.52;8.07;;;;;;;16.51;60.82;101510.91;6154318;23;20021;-43
2023/01/02 08:38:48;;;;;;;17.52;8.40;;;;;;;16.51;60.01;101521.59;6155306;23;20026;-43
2023/01/02 08:41:29;;;;;;;20.77;8.45;;;;;;;16.51;59.93;101537.66;6153646;23;20044;-43
2023/01/02 08:43:55;;;;;;;15.15;8.50;;;;;;;16.51;59.66;101532.31;6154197;23;20021;-44
2023/01/02 08:46:22;;;;;;;19.23;9.27;;;;;;;16.53;60.96;101532.19;6154481;23;20021;-43
2023/01/02 08:48:49;;;;;;;17.60;9.30;;;;;;;16.51;60.06;101545.69;6154326;23;20040;-43
2023/01/02 08:51:15;;;;;;;20.20;9.75;;;;;;;16.51;60.12;101551.03;6128699;23;20049;-43
2023/01/02 08:53:42;;;;;;;16.90;9.05;;;;;;;16.51;59.87;101555.53;6152862;23;20108;-43
2023/01/02 08:56:25;;;;;;;18.13;9.23;;;;;;;16.51;59.83;101561.75;6153748;23;20036;-43
2023/01/02 08:59:00;;;;;;;17.33;9.05;;;;;;;16.51;59.65;101574.28;6157892;23;20056;-43
2023/01/02 09:01:29;;;;;;;18.13;9.52;;;;;;;16.51;60.04;101574.28;6156319;23;20048;-45
2023/01/02 09:03:57;;;;;;;19.42;10.05;;;;;;;16.51;60.19;101588.50;6154127;23;20485;-44
2023/01/02 09:06:25;;;;;;;17.58;9.57;;;;;;;16.51;59.83;101588.50;6155800;23;20034;-44
2023/01/02 09:08:54;;;;;;;20.02;10.13;;;;;;;16.51;60.17;101593.00;6115676;23;20504;-41
2023/01/02 09:11:24;;;;;;;20.38;10.35;;;;;;;16.52;60.59;101587.56;6068360;23;20025;-41
2023/01/02 09:13:51;;;;;;;19.60;10.02;;;;;;;16.52;60.16;101584.88;6091551;23;20413;-39
2023/01/02 09:16:18;;;;;;;19.70;10.40;;;;;;;16.54;60.36;101596.28;6154375;23;20064;-44
2023/01/02 09:18:45;;;;;;;21.73;10.30;;;;;;;16.56;60.65;101608.69;6154795;23;20021;-44
2023/01/02 09:21:11;;;;;;;18.30;10.25;;;;;;;16.57;60.16;101607.72;6155517;23;20048;-44
2023/01/02 09:23:38;;;;;;;22.25;9.98;;;;;;;16.59;59.50;101611.13;6155466;23;20278;-43
2023/01/02 09:26:06;;;;;;;17.88;9.55;;;;;;;16.59;60.73;101624.50;6154611;23;20028;-43
2023/01/02 09:28:35;;;;;;;19.42;10.00;;;;;;;16.61;59.61;101614.53;6154818;23;20021;-43
2023/01/02 09:31:10;;;;;;;18.63;10.35;;;;;;;16.61;59.93;101615.38;6155771;23;20021;-44
2023/01/02 09:33:40;;;;;;;21.42;10.55;;;;;;;16.63;59.92;101624.13;6155592;23;20025;-43
2023/01/02 09:36:08;;;;;;;22.50;10.63;;;;;;;16.64;59.67;101638.34;6155271;23;20056;-44
2023/01/02 09:38:35;;;;;;;17.33;10.27;;;;;;;16.66;59.54;101636.41;6154833;23;20274;-44
2023/01/02 09:41:12;;;;;;;19.08;10.25;;;;;;;16.67;59.70;101630.06;6149954;23;20112;-41
2023/01/02 09:43:45;;;;;;;18.45;11.20;;;;;;;16.68;60.83;101632.66;6142688;23;20026;-44
2023/01/02 09:46:23;;;;;;;26.20;12.95;;;;;;;16.71;60.39;101635.03;6147207;23;20504;-44
2023/01/02 09:48:50;;;;;;;22.35;11.40;;;;;;;16.74;60.45;101637.50;6144907;23;20071;-43
2023/01/02 09:51:17;;;;;;;25.55;13.57;;;;;;;16.77;60.93;101641.78;6147090;23;20025;-37
2023/01/02 09:53:43;;;;;;;22.67;12.93;;;;;;;16.77;61.37;101633.75;6145667;23;20335;-36
2023/01/02 09:56:22;;;;;;;21.15;12.10;;;;;;;16.82;60.58;101636.03;6144747;23;20025;-38
2023/01/02 09:58:58;;;;;;;;;;;;;;;16.81;60.88;101637.03;6147442;23;20064;-37
2023/01/02 10:01:54;;;;;;;23.00;12.45;;;;;;;16.83;60.38;101640.41;6147671;23;19921;-36
2023/01/02 10:04:55;;;;;;;20.40;11.50;;;;;;;16.85;60.62;101638.47;6145789;23;20289;-38
2023/01/02 10:07:28;;;;;;;21.23;11.88;;;;;;;16.86;60.52;101643.69;6145946;23;20133;-37
2023/01/02 10:10:26;;;;;;;20.65;11.48;;;;;;;16.88;60.75;101655.09;6088699;23;20315;-37
2023/01/02 10:13:05;;;;;;;24.85;12.57;;;;;;;16.95;60.30;101653.63;6066128;23;20370;-42
2023/01/02 10:15:33;;;;;;;22.60;13.65;;;;;;;17.02;60.50;101651.31;6134575;23;20032;-42
2023/01/02 10:18:16;;;;;;;25.10;14.05;;;;;;;17.07;60.30;101665.16;6145194;23;20260;-41
2023/01/02 10:20:45;;;;;;;;;;;;;;;17.11;60.86;101671.13;6147669;23;20087;-37
2023/01/02 10:23:24;;;;;;;29.83;16.98;;;;;;;17.16;60.03;101660.84;6144413;23;20194;-41
2023/01/02 10:26:00;;;;;;;34.47;18.65;;;;;;;17.19;60.38;101655.25;6144678;23;20025;-37
2023/01/02 10:28:39;;;;;;;31.08;17.27;;;;;;;17.19;60.77;101666.81;6147942;23;20033;-41
2023/01/02 10:31:28;;;;;;;33.17;17.98;;;;;;;17.21;60.81;101656.84;6146227;23;20065;-39
2023/01/02 10:34:02;;;;;;;34.13;18.42;;;;;;;17.24;60.37;101653.88;6146303;23;20029;-39
2023/01/02 10:36:33;;;;;;;32.08;18.10;;;;;;;17.26;60.51;101654.63;6144410;23;20025;-39
2023/01/02 10:39:06;;;;;;;31.92;17.83;;;;;;;17.31;60.59;101664.09;6146062;23;20025;-42
2023/01/02 10:41:34;;;;;;;35.15;17.63;;;;;;;17.33;60.54;101664.84;6145543;23;20116;-40
2023/01/02 10:44:06;;;;;;;34.25;18.63;;;;;;;17.35;60.45;101671.75;6145357;23;20029;-38
2023/01/02 10:46:38;;;;;;;30.67;17.60;;;;;;;17.38;60.59;101671.50;6145940;23;20293;-42
2023/01/02 10:49:08;;;;;;;29.52;16.48;;;;;;;17.40;60.34;101666.00;6144248;23;20025;-40
2023/01/02 10:51:44;;;;;;;32.83;17.35;;;;;;;17.42;60.10;101680.13;6144670;23;20066;-43
2023/01/02 10:54:10;;;;;;;38.20;18.35;;;;;;;17.46;60.54;101673.53;6147025;23;20022;-44
2023/01/02 10:56:39;;;;;;;30.45;16.95;;;;;;;17.47;59.87;101675.22;6143818;23;20124;-45
2023/01/02 10:59:23;;;;;;;27.63;15.63;;;;;;;17.47;59.71;101685.94;6145019;23;20117;-43
2023/01/02 11:01:59;;;;;;;34.28;17.83;;;;;;;17.46;60.02;101687.78;6145975;23;20029;-43
2023/01/02 11:04:29;;;;;;;43.90;23.17;;;;;;;17.49;60.31;101694.72;6145905;23;20068;-43
2023/01/02 11:07:01;;;;;;;48.33;26.10;;;;;;;17.50;60.24;101691.03;6145261;23;20048;-41
2023/01/02 11:09:34;;;;;;;51.70;27.27;;;;;;;17.53;59.76;101690.78;6144495;23;20040;-42
2023/01/02 11:12:12;;;;;;;55.03;29.02;;;;;;;17.54;59.78;101689.81;6145032;23;20383;-41
2023/01/02 11:14:39;;;;;;;50.88;27.35;;;;;;;17.58;60.08;101701.97;6145356;23;20032;-42
2023/01/02 11:17:12;;;;;;;54.33;29.27;;;;;;;17.59;59.10;101695.63;6145559;23;20327;-41
2023/01/02 11:19:45;;;;;;;54.20;28.80;;;;;;;17.62;59.14;101702.56;6145969;23;20317;-41
2023/01/02 11:22:14;;;;;;;52.22;28.00;;;;;;;17.62;59.03;101706.09;6144283;23;20072;-42
2023/01/02 11:25:01;;;;;;;56.78;28.52;;;;;;;17.61;59.39;101711.56;6143392;23;20025;-39
2023/01/02 11:27:42;;;;;;;56.58;29.55;;;;;;;17.62;58.93;101711.44;6145994;23;20278;-39
2023/01/02 11:30:28;;;;;;;54.95;28.83;;;;;;;17.63;58.97;101721.19;6143681;23;20029;-41
2023/01/02 11:33:06;;;;;;;55.40;28.77;;;;;;;17.65;59.31;101721.09;6145033;23;20112;-41
2023/01/02 11:35:37;;;;;;;56.85;29.10;;;;;;;17.66;58.79;101731.66;6147166;23;20031;-40
2023/01/02 11:38:12;;;;;;;51.60;26.75;;;;;;;17.66;59.38;101736.19;6141285;23;20029;-40
2023/01/02 11:40:50;;;;;;;48.97;25.77;;;;;;;17.65;59.13;101738.00;6144758;23;20033;-42